createdAt,value
2018-11-20T00:00:14.022Z,45.77
2018-11-20T00:03:01.801Z,48.10
2018-11-20T00:05:54.298Z,40.83
2018-11-20T00:08:41.793Z,48.83
2018-11-20T00:11:33.495Z,47.50
2018-11-20T00:14:37.808Z,47.73
2018-11-20T00:17:27.052Z,49.43
2018-11-20T00:20:21.911Z,48.03
2018-11-20T00:23:23.118Z,50.03
2018-11-20T00:26:10.756Z,51.40
2018-11-20T00:29:00.001Z,49.47
2018-11-20T00:31:47.689Z,45.60
2018-11-20T00:34:36.873Z,43.80
2018-11-20T00:37:36.679Z,45.87
2018-11-20T00:40:13.806Z,42.57
2018-11-20T00:43:05.729Z,45.57
2018-11-20T00:45:53.541Z,45.40
2018-11-20T00:48:52.788Z,41.90
2018-11-20T00:51:40.981Z,35.73
2018-11-20T00:54:29.338Z,38.17
2018-11-20T00:57:11.031Z,32.77
2018-11-20T00:59:59.890Z,34.87
2018-11-20T01:02:57.736Z,44.57
2018-11-20T01:05:39.040Z,40.97
2018-11-20T01:08:32.016Z,42.17
2018-11-20T01:11:25.015Z,38.10
2018-11-20T01:14:12.861Z,38.10
2018-11-20T01:17:07.697Z,39.37
2018-11-20T01:19:55.582Z,37.03
2018-11-20T01:22:43.164Z,39.20
2018-11-20T01:25:30.147Z,37.23
2018-11-20T01:28:24.770Z,46.20
2018-11-20T01:31:07.720Z,39.73
2018-11-20T01:33:59.596Z,41.03
2018-11-20T01:36:45.094Z,36.63
2018-11-20T01:39:30.257Z,46.17
2018-11-20T01:42:18.011Z,47.33
2018-11-20T01:45:05.674Z,35.33
2018-11-20T01:47:50.703Z,37.67
2018-11-20T01:50:38.256Z,37.27
2018-11-20T01:53:25.819Z,41.90
2018-11-20T01:56:13.332Z,39.00
2018-11-20T01:59:20.755Z,39.77
2018-11-20T02:02:12.779Z,44.13
2018-11-20T02:05:00.327Z,42.73
2018-11-20T02:07:48.547Z,40.87
2018-11-20T02:10:36.474Z,40.50
2018-11-20T02:13:58.720Z,43.07
2018-11-20T02:16:48.936Z,41.33
2018-11-20T02:19:46.774Z,41.50
2018-11-20T02:22:34.357Z,43.93
2018-11-20T02:25:38.377Z,42.03
2018-11-20T02:28:19.929Z,45.57
2018-11-20T02:31:14.737Z,44.37
2018-11-20T02:34:22.497Z,43.10
2018-11-20T02:37:10.607Z,40.07
2018-11-20T02:40:03.641Z,45.50
2018-11-20T02:42:58.733Z,42.83
2018-11-20T02:46:00.000Z,42.33
2018-11-20T02:49:01.367Z,36.53
2018-11-20T02:51:49.674Z,35.10
2018-11-20T02:54:57.213Z,40.97
2018-11-20T02:57:49.381Z,34.33
2018-11-20T03:00:57.505Z,35.30
2018-11-20T03:03:52.544Z,34.93
2018-11-20T03:06:39.980Z,42.23
2018-11-20T03:09:23.165Z,38.97
2018-11-20T03:12:10.774Z,34.43
2018-11-20T03:14:58.599Z,37.23
2018-11-20T03:17:49.070Z,37.20
2018-11-20T03:20:33.038Z,38.93
2018-11-20T03:23:27.794Z,29.07
2018-11-20T03:26:38.907Z,32.97
2018-11-20T03:29:49.901Z,36.10
2018-11-20T03:32:45.448Z,35.50
2018-11-20T03:35:34.463Z,33.13
2018-11-20T03:38:41.755Z,35.67
2018-11-20T03:41:29.472Z,38.13
2018-11-20T03:44:18.753Z,39.03
2018-11-20T03:47:00.512Z,41.40
2018-11-20T03:49:48.033Z,35.97
2018-11-20T03:52:46.358Z,37.37
2018-11-20T03:55:41.630Z,43.20
2018-11-20T03:58:39.191Z,40.60
2018-11-20T04:01:31.534Z,39.67
2018-11-20T04:04:23.234Z,45.67
2018-11-20T04:07:05.298Z,39.03
2018-11-20T04:09:52.425Z,40.60
2018-11-20T04:12:50.616Z,40.40
2018-11-20T04:15:51.605Z,39.73
2018-11-20T04:18:44.865Z,40.30
2018-11-20T04:21:51.877Z,38.97
2018-11-20T04:24:43.755Z,40.13
2018-11-20T04:27:26.370Z,47.10
2018-11-20T04:30:51.261Z,41.40
2018-11-20T04:34:11.486Z,45.37
2018-11-20T04:37:15.201Z,48.00
2018-11-20T04:40:13.744Z,46.33
2018-11-20T04:43:12.234Z,48.07
2018-11-20T04:46:13.407Z,45.53
2018-11-20T04:49:05.153Z,37.07
2018-11-20T04:52:06.105Z,41.30
2018-11-20T04:54:53.768Z,45.93
2018-11-20T04:57:47.816Z,45.80
2018-11-20T05:00:36.840Z,45.60
2018-11-20T05:03:26.255Z,39.37
2018-11-20T05:06:21.194Z,42.07
2018-11-20T05:09:19.137Z,37.23
2018-11-20T05:12:07.268Z,41.33
2018-11-20T05:15:08.400Z,44.63
2018-11-20T05:17:48.983Z,40.17
2018-11-20T05:20:36.779Z,43.23
2018-11-20T05:23:28.818Z,41.43
2018-11-20T05:26:33.040Z,35.93
2018-11-20T05:29:27.998Z,34.30
2018-11-20T05:32:22.765Z,36.17
2018-11-20T05:35:04.551Z,36.47
2018-11-20T05:37:50.439Z,41.23
2018-11-20T05:40:37.915Z,38.67
2018-11-20T05:43:22.893Z,39.27
2018-11-20T05:46:10.817Z,40.43
2018-11-20T05:49:02.727Z,36.07
2018-11-20T05:51:50.798Z,40.60
2018-11-20T05:54:39.808Z,42.07
2018-11-20T05:57:36.207Z,41.13
2018-11-20T06:00:33.108Z,40.43
2018-11-20T06:03:34.801Z,42.50
2018-11-20T06:06:26.453Z,41.37
2018-11-20T06:09:12.770Z,36.53
2018-11-20T06:12:04.770Z,38.73
2018-11-20T06:15:03.086Z,40.13
2018-11-20T06:18:07.417Z,40.50
2018-11-20T06:20:59.579Z,37.47
2018-11-20T06:23:51.461Z,37.50
2018-11-20T06:26:39.447Z,36.47
2018-11-20T06:29:27.669Z,43.40
2018-11-20T06:32:15.273Z,45.40
2018-11-20T06:35:13.120Z,40.83
2018-11-20T06:38:04.845Z,40.83
2018-11-20T06:40:52.402Z,37.83
2018-11-20T06:43:44.109Z,41.93
2018-11-20T06:46:45.270Z,40.87
2018-11-20T06:49:31.004Z,53.67
2018-11-20T06:52:32.083Z,44.90
2018-11-20T06:55:18.175Z,46.97
2018-11-20T06:58:13.145Z,47.57
2018-11-20T07:01:00.980Z,46.83
2018-11-20T07:03:48.915Z,49.47
2018-11-20T07:06:33.843Z,46.67
2018-11-20T07:09:25.735Z,44.53
2018-11-20T07:12:14.805Z,42.53
2018-11-20T07:15:03.924Z,44.40
2018-11-20T07:17:44.474Z,46.67
2018-11-20T07:20:36.387Z,46.83
2018-11-20T07:23:28.492Z,46.67
2018-11-20T07:26:29.716Z,47.27
2018-11-20T07:29:24.635Z,46.60
2018-11-20T07:32:25.610Z,52.10
2018-11-20T07:35:11.722Z,49.30
2018-11-20T07:38:03.735Z,40.57
2018-11-20T07:40:50.519Z,55.53
2018-11-20T07:43:45.635Z,52.27
2018-11-20T07:46:29.155Z,36.20
2018-11-20T07:49:18.791Z,46.70
2018-11-20T07:52:16.448Z,47.87
2018-11-20T07:55:17.799Z,46.33
2018-11-20T07:58:05.534Z,46.50
2018-11-20T08:00:57.276Z,47.53
2018-11-20T08:03:39.376Z,48.53
2018-11-20T08:06:27.165Z,55.57
2018-11-20T08:09:22.088Z,56.87
2018-11-20T08:12:18.097Z,52.60
2018-11-20T08:15:07.583Z,52.87
2018-11-20T08:17:56.680Z,49.77
2018-11-20T08:20:47.381Z,47.53
2018-11-20T08:23:35.331Z,51.83
2018-11-20T08:26:24.974Z,42.57
2018-11-20T08:29:17.938Z,57.97
2018-11-20T08:32:07.682Z,43.33
2018-11-20T08:35:08.014Z,56.30
2018-11-20T08:37:59.774Z,52.80
2018-11-20T08:41:07.061Z,57.60
2018-11-20T08:44:14.343Z,50.27
2018-11-20T08:47:25.786Z,54.23
2018-11-20T08:50:23.896Z,50.87
2018-11-20T08:53:08.942Z,40.73
2018-11-20T08:56:32.441Z,43.50
2018-11-20T08:59:22.433Z,51.03
2018-11-20T09:02:10.440Z,49.47
2018-11-20T09:05:10.310Z,48.43
2018-11-20T09:08:04.316Z,58.60
2018-11-20T09:11:02.956Z,52.10
2018-11-20T09:14:00.812Z,52.03
2018-11-20T09:16:58.833Z,54.33
2018-11-20T09:20:09.894Z,54.10
2018-11-20T09:23:21.559Z,46.40
2018-11-20T09:26:27.928Z,51.80
2018-11-20T09:29:39.766Z,52.50
2018-11-20T09:32:34.887Z,54.23
2018-11-20T09:35:18.392Z,53.63
2018-11-20T09:38:03.034Z,47.80
2018-11-20T09:40:55.294Z,51.40
2018-11-20T09:43:49.935Z,53.10
2018-11-20T09:46:37.708Z,56.43
2018-11-20T09:49:29.643Z,48.53
2018-11-20T09:52:19.321Z,56.23
2018-11-20T09:55:07.247Z,52.43
2018-11-20T09:58:11.217Z,61.40
2018-11-20T10:01:00.306Z,52.97
2018-11-20T10:03:58.632Z,49.83
2018-11-20T10:06:46.290Z,48.50
2018-11-20T10:09:53.394Z,44.23
2018-11-20T10:12:51.228Z,45.93
2018-11-20T10:15:49.847Z,50.70
2018-11-20T10:18:54.174Z,53.37
2018-11-20T10:21:36.089Z,48.60
2018-11-20T10:24:22.641Z,45.00
2018-11-20T10:27:59.860Z,46.77
2018-11-20T10:30:46.860Z,43.57
2018-11-20T10:33:41.088Z,40.87
2018-11-20T10:36:43.157Z,42.00
2018-11-20T10:39:31.839Z,41.47
2018-11-20T10:42:23.162Z,43.57
2018-11-20T10:45:23.792Z,42.87
2018-11-20T10:48:04.508Z,41.33
2018-11-20T10:50:51.859Z,41.23
2018-11-20T10:53:38.883Z,44.03
2018-11-20T10:56:26.085Z,45.10
2018-11-20T10:59:13.140Z,42.80
2018-11-20T11:02:00.083Z,43.23
2018-11-20T11:04:47.325Z,40.83
2018-11-20T11:07:48.361Z,36.07
2018-11-20T11:10:28.072Z,41.97
2018-11-20T11:13:25.247Z,40.87
2018-11-20T11:16:12.049Z,40.80
2018-11-20T11:19:12.643Z,48.47
2018-11-20T11:22:07.175Z,40.13
2018-11-20T11:24:55.562Z,39.10
2018-11-20T11:27:44.356Z,40.23
2018-11-20T11:30:31.628Z,42.30
2018-11-20T11:33:38.453Z,46.17
2018-11-20T11:36:36.551Z,45.20
2018-11-20T11:39:29.517Z,42.57
2018-11-20T11:42:30.239Z,32.83
2018-11-20T11:45:24.499Z,45.07
2018-11-20T11:48:15.587Z,36.30
2018-11-20T11:51:03.840Z,40.63
2018-11-20T11:53:58.117Z,38.97
2018-11-20T11:56:45.607Z,39.87
2018-11-20T11:59:33.182Z,42.57
2018-11-20T12:05:12.519Z,38.77
2018-11-20T12:10:54.500Z,42.27
2018-11-20T12:13:54.552Z,44.00
2018-11-20T12:16:43.309Z,53.03
2018-11-20T12:19:34.614Z,39.37
2018-11-20T12:22:21.843Z,43.40
2018-11-20T12:25:10.111Z,47.07
2018-11-20T12:27:58.829Z,34.97
2018-11-20T12:31:03.854Z,40.13
2018-11-20T12:34:07.499Z,44.67
2018-11-20T12:36:55.841Z,39.73
2018-11-20T12:39:58.388Z,56.53
2018-11-20T12:42:48.897Z,42.27
2018-11-20T12:45:49.208Z,47.90
2018-11-20T12:48:40.436Z,44.07
2018-11-20T12:51:27.372Z,51.30
2018-11-20T12:54:33.630Z,45.23
2018-11-20T12:57:21.139Z,48.97
2018-11-20T13:00:28.277Z,47.80
2018-11-20T13:03:25.476Z,49.57
2018-11-20T13:06:12.239Z,41.93
2018-11-20T13:09:09.922Z,50.40
2018-11-20T13:11:57.142Z,43.43
2018-11-20T13:14:45.748Z,41.40
2018-11-20T13:17:44.433Z,48.90
2018-11-20T13:20:32.026Z,46.57
2018-11-20T13:23:20.887Z,38.10
2018-11-20T13:26:07.745Z,44.30
2018-11-20T13:29:32.345Z,51.87
2018-11-20T13:32:17.101Z,51.97
2018-11-20T13:34:57.711Z,44.70
2018-11-20T13:38:11.677Z,44.80
2018-11-20T13:44:20.087Z,42.07
2018-11-20T13:47:20.722Z,43.47
2018-11-20T13:50:24.836Z,47.13
2018-11-20T13:53:12.009Z,46.17
2018-11-20T13:55:59.307Z,50.10
2018-11-20T13:58:47.873Z,39.60
2018-11-20T14:01:49.248Z,45.10
2018-11-20T14:04:49.503Z,50.20
2018-11-20T14:07:49.751Z,36.40
2018-11-20T14:10:36.892Z,45.60
2018-11-20T14:13:26.236Z,46.73
2018-11-20T14:16:13.302Z,44.00
2018-11-20T14:19:18.458Z,56.13
2018-11-20T14:22:05.594Z,57.57
2018-11-20T14:24:52.604Z,47.70
2018-11-20T14:27:51.130Z,49.27
2018-11-20T14:30:39.723Z,43.40
2018-11-20T14:33:34.035Z,46.53
2018-11-20T14:36:25.034Z,41.07
2018-11-20T14:39:14.750Z,46.23
2018-11-20T14:42:03.766Z,46.03
2018-11-20T14:44:51.302Z,40.10
2018-11-20T14:47:42.229Z,46.03
2018-11-20T14:50:29.061Z,42.80
2018-11-20T14:53:20.106Z,46.90
2018-11-20T14:56:17.542Z,50.33
2018-11-20T14:59:08.884Z,47.73
2018-11-20T15:01:56.583Z,54.43
2018-11-20T15:04:51.375Z,41.30
2018-11-20T15:07:45.349Z,54.73
2018-11-20T15:10:32.656Z,49.13
2018-11-20T15:13:18.385Z,47.07
2018-11-20T15:16:33.168Z,49.57
2018-11-20T15:19:26.958Z,49.17
2018-11-20T15:22:16.697Z,53.00
2018-11-20T15:25:10.037Z,49.83
2018-11-20T15:27:59.144Z,43.83
2018-11-20T15:30:46.760Z,45.07
2018-11-20T15:33:41.054Z,46.00
2018-11-20T15:36:30.179Z,48.00
2018-11-20T15:39:12.345Z,45.57
2018-11-20T15:42:06.935Z,49.00
2018-11-20T15:44:54.332Z,45.73
2018-11-20T15:48:03.957Z,49.17
2018-11-20T15:50:54.385Z,54.53
2018-11-20T15:53:52.047Z,48.60
2018-11-20T15:56:50.213Z,47.17
2018-11-20T15:59:38.241Z,50.67
2018-11-20T16:02:39.836Z,53.00
2018-11-20T16:05:26.804Z,50.47
2018-11-20T16:08:25.462Z,49.93
2018-11-20T16:11:19.788Z,56.87
2018-11-20T16:14:08.675Z,51.30
2018-11-20T16:17:17.202Z,46.23
2018-11-20T16:19:54.846Z,55.03
2018-11-20T16:22:42.681Z,56.07
2018-11-20T16:25:42.939Z,49.53
2018-11-20T16:28:46.663Z,53.13
2018-11-20T16:31:34.003Z,43.57
2018-11-20T16:34:20.896Z,49.77
2018-11-20T16:37:08.002Z,48.20
2018-11-20T16:40:15.004Z,50.03
2018-11-20T16:43:02.041Z,50.03
2018-11-20T16:45:49.137Z,49.93
2018-11-20T16:48:36.277Z,47.90
2018-11-20T16:51:24.757Z,46.70
2018-11-20T16:54:13.109Z,52.87
2018-11-20T16:57:03.237Z,44.47
2018-11-20T16:59:51.552Z,49.10
2018-11-20T17:02:52.166Z,40.67
2018-11-20T17:05:55.612Z,55.33
2018-11-20T17:08:52.814Z,47.27
2018-11-20T17:11:47.155Z,57.53
2018-11-20T17:14:47.623Z,60.13
2018-11-20T17:17:48.118Z,49.70
2018-11-20T17:20:35.754Z,40.83
2018-11-20T17:23:18.484Z,58.93
2018-11-20T17:26:05.979Z,57.23
2018-11-20T17:29:07.275Z,49.73
2018-11-20T17:31:54.187Z,54.90
2018-11-20T17:34:48.186Z,56.10
2018-11-20T17:37:36.338Z,52.77
2018-11-20T17:40:25.291Z,57.27
2018-11-20T17:43:13.551Z,60.87
2018-11-20T17:46:12.107Z,58.03
2018-11-20T17:48:59.466Z,54.63
2018-11-20T17:51:50.460Z,58.17
2018-11-20T17:54:54.446Z,62.27
2018-11-20T17:57:36.003Z,59.20
2018-11-20T18:00:29.456Z,60.30
2018-11-20T18:03:21.032Z,54.50
2018-11-20T18:06:10.151Z,56.57
2018-11-20T18:08:58.565Z,56.20
2018-11-20T18:11:47.427Z,58.53
2018-11-20T18:14:34.453Z,60.67
2018-11-20T18:17:20.745Z,58.73
2018-11-20T18:20:09.585Z,58.17
2018-11-20T18:23:03.799Z,62.30
2018-11-20T18:26:04.553Z,51.70
2018-11-20T18:28:53.400Z,51.97
2018-11-20T18:31:50.945Z,57.77
2018-11-20T18:34:43.832Z,50.73
2018-11-20T18:37:16.127Z,51.60
2018-11-20T18:40:12.974Z,55.43
2018-11-20T18:43:14.330Z,50.83
2018-11-20T18:46:09.629Z,54.07
2018-11-20T18:49:02.217Z,50.93
2018-11-20T18:52:02.649Z,46.93
2018-11-20T18:54:43.582Z,55.17
2018-11-20T18:57:35.079Z,59.30
2018-11-20T19:00:45.399Z,49.13
2018-11-20T19:03:42.800Z,52.43
2018-11-20T19:06:34.272Z,56.57
2018-11-20T19:09:25.386Z,56.93
2018-11-20T19:12:07.987Z,58.30
2018-11-20T19:14:59.292Z,62.37
2018-11-20T19:17:49.040Z,56.23
2018-11-20T19:20:36.313Z,49.70
2018-11-20T19:23:33.271Z,55.10
2018-11-20T19:26:33.431Z,52.30
2018-11-20T19:29:27.223Z,56.67
2018-11-20T19:32:17.011Z,54.60
2018-11-20T19:35:08.522Z,53.47
2018-11-20T19:38:09.501Z,51.43
2018-11-20T19:40:58.158Z,53.03
2018-11-20T19:43:49.495Z,54.50
2018-11-20T19:46:47.294Z,50.97
2018-11-20T19:49:34.002Z,55.73
2018-11-20T19:52:20.907Z,56.47
2018-11-20T19:55:18.571Z,49.80
2018-11-20T19:58:19.457Z,52.23
2018-11-20T20:01:07.393Z,52.40
2018-11-20T20:03:46.706Z,50.43
2018-11-20T20:06:38.249Z,52.83
2018-11-20T20:09:47.551Z,59.30
2018-11-20T20:12:37.617Z,48.83
2018-11-20T20:15:45.075Z,54.67
2018-11-20T20:18:34.802Z,48.20
2018-11-20T20:21:23.680Z,54.83
2018-11-20T20:24:20.760Z,52.00
2018-11-20T20:27:24.261Z,50.40
2018-11-20T20:30:15.421Z,49.40
2018-11-20T20:32:52.325Z,47.20
2018-11-20T20:35:39.583Z,53.87
2018-11-20T20:38:37.235Z,49.77
2018-11-20T20:41:31.341Z,48.87
2018-11-20T20:44:18.182Z,52.40
2018-11-20T20:47:18.303Z,50.50
2018-11-20T20:49:57.623Z,48.70
2018-11-20T20:52:48.881Z,46.37
2018-11-20T20:55:40.664Z,42.77
2018-11-20T20:58:31.490Z,50.40
2018-11-20T21:01:18.621Z,50.57
2018-11-20T21:04:05.304Z,45.27
2018-11-20T21:06:58.987Z,49.13
2018-11-20T21:09:50.593Z,46.80
2018-11-20T21:12:37.690Z,48.53
2018-11-20T21:15:25.518Z,51.63
2018-11-20T21:18:12.413Z,44.00
2018-11-20T21:20:59.614Z,47.80
2018-11-20T21:23:44.439Z,48.70
2018-11-20T21:26:42.074Z,43.97
2018-11-20T21:29:25.443Z,52.20
2018-11-20T21:32:12.451Z,45.30
2018-11-20T21:35:15.749Z,43.53
2018-11-20T21:38:02.678Z,49.27
2018-11-20T21:40:53.530Z,51.60
2018-11-20T21:43:41.846Z,43.97
2018-11-20T21:46:33.528Z,49.60
2018-11-20T21:49:34.126Z,51.50
2018-11-20T21:52:25.006Z,46.40
2018-11-20T21:55:03.341Z,46.07
2018-11-20T21:57:57.921Z,48.10
2018-11-20T22:00:55.884Z,47.07
2018-11-20T22:03:59.365Z,51.60
2018-11-20T22:06:46.434Z,54.33
2018-11-20T22:09:23.681Z,51.87
2018-11-20T22:12:18.350Z,56.33
2018-11-20T22:15:12.725Z,51.77
2018-11-20T22:18:10.199Z,52.17
2018-11-20T22:21:16.709Z,50.87
2018-11-20T22:24:07.705Z,49.83
2018-11-20T22:27:02.647Z,47.73
2018-11-20T22:30:09.245Z,47.97
2018-11-20T22:33:12.644Z,53.60
2018-11-20T22:36:06.970Z,56.67
2018-11-20T22:39:03.850Z,55.03
2018-11-20T22:42:01.211Z,51.77
2018-11-20T22:44:53.146Z,55.10
2018-11-20T22:47:56.355Z,56.37
2018-11-20T22:50:40.998Z,52.37
2018-11-20T22:53:47.822Z,59.80
2018-11-20T22:56:24.500Z,60.03
2018-11-20T22:59:20.091Z,59.07
2018-11-20T23:02:17.390Z,55.53
2018-11-20T23:05:10.667Z,53.23
2018-11-20T23:07:45.103Z,62.27
2018-11-20T23:10:16.972Z,54.73
2018-11-20T23:12:46.617Z,60.43
2018-11-20T23:15:16.603Z,56.97
2018-11-20T23:17:45.839Z,62.93
2018-11-20T23:20:15.395Z,60.93
2018-11-20T23:22:44.742Z,57.83
2018-11-20T23:25:16.951Z,56.40
2018-11-20T23:27:46.534Z,58.93
2018-11-20T23:30:16.352Z,60.43
2018-11-20T23:32:45.971Z,58.03
2018-11-20T23:35:15.280Z,58.00
2018-11-20T23:37:44.572Z,57.70
2018-11-20T23:40:14.846Z,60.43
2018-11-20T23:42:44.232Z,59.97
2018-11-20T23:45:14.568Z,62.17
2018-11-20T23:47:44.055Z,60.67
2018-11-20T23:50:14.502Z,56.63
2018-11-20T23:52:43.749Z,59.97
2018-11-20T23:55:14.116Z,57.37
2018-11-20T23:57:45.820Z,64.93
